Tiempo atmosférico en la estación meteorológica de Logroño Aeropuerto, La Rioja (353 m.)



Fecha
DESCASC
Temp. máxima en grados centígrados (hora)
DESCASC
Temp. mínima en grados centígrados (hora)
DESCASC
Temp. media en grados centígrados
DESCASC
Racha de viento máxima en m/sg (hora)
DESCASC
Velocidad máxima media en intervalos de 10 minutos(hora)
DESCASC
Precipitaciones diarias en mm
DESCASC
Precipitaciones de 00:00 a 06:00 en mm
DESCASC
Precipitaciones de 06:00 a 12:00 en mm
DESCASC
Precipitaciones de 12:00 a 18:00 en mm
DESCASC
Precipitaciones de 18:00 a 24:00 en mm
DESCASC
29-03-2020 16 (15:30) 4.7 (08:20) 10.3 9.17 (15:10) 5.28 (17:10) 0 0 0 0 0
28-03-2020 19.2 (15:30) 2.1 (05:10) 10.7 5 (09:40) 3.06 (10:00) 0 0 0 0 0
27-03-2020 14.8 (15:40) 1.9 (00:20) 8.4 5.83 (11:10) 3.33 (14:40) 0 0 0 0 0
26-03-2020 12.9 (14:50) 2.2 (00:00) 7.5 10.83 (13:20) 5.83 (12:40) 0 0 0 0 0
25-03-2020 15.7 (15:20) 5.3 (00:00) 10.5 8.33 (16:20) 6.39 (16:20) 0 0 0 0 0
24-03-2020 17.4 (16:50) 7.6 (00:00) 12.5 7.22 (09:10) 5.83 (09:30) 0 0 0 0 0
23-03-2020 17.7 (15:10) 6.5 (00:00) 12.1 7.78 (14:00) 5.83 (14:00) 0.7 0.2 0 0 0.5
22-03-2020 17.8 (15:50) 5.5 (03:00) 11.6 8.33 (15:20) 5.28 (16:10) 0 0 0 0 0
21-03-2020 15.8 (16:30) 5.3 (00:00) 10.6 12.78 (14:00) 9.44 (13:30) 0 0 0 0 0
20-03-2020 14.9 (15:30) 6.5 (00:00) 10.7 13.89 (13:40) 10.56 (13:40) 0 0 0 0 0
19-03-2020 17.5 (15:30) 5.9 (00:00) 11.7 12.5 (15:00) 9.17 (16:10) 0 0 0 0 0
18-03-2020 15 (15:10) 5.1 (00:00) 10 6.67 (15:10) 5 (15:40) 0 0 0 0 0
17-03-2020 11.4 (16:50) 6.5 (00:00) 8.9 4.72 (17:30) 3.33 (17:30) 7.9 7.6 0.3 0 0
16-03-2020 8.8 (00:00) 3.1 (00:00) 6 8.33 (12:10) 5.56 (12:10) 49.8 11.7 15.5 11.7 10.9
15-03-2020 17.9 (15:40) 0.2 (00:00) 9 13.33 (16:50) 9.72 (16:50) 15 0 0 2.1 12.9
14-03-2020 18.8 (17:30) 3.5 (00:00) 11.1 6.11 (10:30) 4.17 (11:20) 0 0 0 0 0
13-03-2020 14 (12:20) 6.3 (23:59) 10.2 7.78 (14:40) 4.17 (10:20) 0 0 0 0 0
12-03-2020 19.4 (15:10) 8.5 (00:00) 13.9 7.22 (14:30) 3.89 (14:10) 0.1 0 0 0 0.1
11-03-2020 24 (17:10) 3.5 (00:00) 13.8 4.72 (10:10) 3.06 (09:20) 0 0 0 0 0
10-03-2020 22.3 (18:10) 5 (00:00) 13.6 9.17 (12:00) 6.11 (15:20) 0 0 0 0 0
09-03-2020 14.6 (16:10) 7.3 (00:00) 11 9.72 (12:10) 6.67 (14:00) 0 0 0 0 0
08-03-2020 17 (17:10) -0.5 (-00:0) 8.3 9.72 (16:40) 6.11 (12:20) 0 0 0 0 0
07-03-2020 13.7 (13:40) 4.3 (00:00) 9 10.28 (12:30) 5.83 (10:50) 1.2 0.9 0.3 0 0
06-03-2020 8.9 (13:40) 5.1 (00:00) 7 15.28 (12:00) 9.17 (12:20) 5.1 0 1.7 0.9 2.5
05-03-2020 16.9 (14:20) 6.7 (00:00) 11.8 20 (13:10) 11.67 (13:10) 1.9 0 1.8 0.1 0
04-03-2020 20.2 (16:50) 8.1 (00:00) 14.2 12.78 (11:50) 7.5 (12:00) 0.8 0.6 0.2 0 0
03-03-2020 20.2 (15:40) 4.3 (00:00) 12.3 19.72 (16:30) 10.56 (13:50) 3.8 0 3.8 0 0
02-03-2020 12.1 (15:00) 4.4 (00:00) 8.3 18.61 (05:20) 8.89 (16:10) 4.7 4.7 0 0 0
01-03-2020 19.3 (15:00) 8.5 (00:00) 13.9 16.11 (11:40) 10.28 (11:40) 0.1 0 0 0 0.1
29-02-2020 16.9 (15:10) 4.7 (00:00) 10.8 13.33 (17:30) 7.22 (17:50) 0 0 0 0 0

Gráficas

Temp. máximas Temp. mínimas Temp. medias Precipitaciones Rachas de viento máximas Velocidades máximas media en intervalos de 10 minutos

Datos horarios

Fecha y hora oficial Temperatura (ºC) Velocidad del viento (km/h) Dirección del viento Racha (km/h) Dirección de racha Precipitación (mm) Presión (hPa) Tendencia (hPa) Humedad (%)
2020-03-29 23:00:00 9 8 Noroeste 22 Noroeste 0 977.2 0.3 72
2020-03-29 22:00:00 9.1 10 Oeste 26 Oeste 0 977.4 0.9 73
2020-03-29 21:00:00 9.6 12 Oeste 22 Noroeste 0 977.1 1.2 69
2020-03-29 20:00:00 10.4 10 Noroeste 30 Noroeste 0 976.9 1.4 69
2020-03-29 19:00:00 11.3 14 Noroeste 33 Noroeste 0 976.5 0.8 69
2020-03-29 18:00:00 13.9 14 Noroeste 33 Noroeste 0 975.9 -0.2 55
2020-03-29 17:00:00 15.5 13 Noroeste 28 Norte 0 975.5 -0.9 46
2020-03-29 16:00:00 15.7 17 Noroeste 33 Norte 0 975.7 -1.4 44
2020-03-29 15:00:00 15.8 15 Noroeste 32 Norte 0 976.1 -1.5 37
2020-03-29 14:00:00 14.7 13 Oeste 28 Sudoeste 0 976.4 -1.5 39
2020-03-29 13:00:00 13.6 14 Oeste 24 Oeste 0 977.1 -0.7 42
2020-03-29 12:00:00 12.1 14 Oeste 28 Oeste 0 977.6 -0.1 48
2020-03-29 11:00:00 10.3 14 Oeste 22 Oeste 0 977.9 0.7 59
2020-03-29 10:00:00 8.2 8 Oeste 17 Oeste 0 977.8 0.7 69
2020-03-29 09:00:00 5.7 10 Oeste 17 Sudoeste 0 977.7 0.7 77
2020-03-29 08:00:00 4.8 6 Oeste 17 Oeste 0 977.2 0.2 81
2020-03-29 07:00:00 5.5 11 Oeste 17 Oeste 0 977.1 -0.1 79
2020-03-29 06:00:00 5.2 6 Oeste 13 Oeste 0 977 -0.4 84
2020-03-29 05:00:00 5.7 5 Oeste 11 Oeste 0 977 -0.4 80
2020-03-29 03:00:00 5.1 0 Calma 13 Oeste 0 977.4 0.4 83
2020-03-29 01:00:00 7.2 4 Oeste 13 Oeste 0 977.4 0.9 77
2020-03-29 00:00:00 7.4 7 Sudoeste 9 Sudoeste 0 977.3 1.4 79
2020-03-28 23:00:00 7.7 2 Sudeste 9 Noroeste 0 977 2.1 79
2020-03-28 22:00:00 10.2 0 Calma 15 Sur 0 976.5 2.3 68
2020-03-28 21:00:00 11.6 6 Este 8 Este 0 975.9 2.1 60
2020-03-28 20:00:00 13.5 3 Norte 9 Noroeste 0 974.9 1.3 53
2020-03-28 19:00:00 17.5 0 Calma 9 Sur 0 974.2 0.3 35
2020-03-28 18:00:00 19 0 Calma 13 Este 0 973.8 -0.5 30
2020-03-28 17:00:00 18.9 9 Sudeste 15 Este 0 973.6 -1.4 31
2020-03-28 16:00:00 18.8 6 Este 18 Sur 0 973.9 -1.7 31
2020-03-28 15:00:00 18.4 2 Sur 13 Norte 0 974.3 -1.9 32
2020-03-28 14:00:00 16.9 8 Nordeste 17 Nordeste 0 975 -1.4 38
2020-03-28 13:00:00 15.2 3 Sudoeste 13 Oeste 0 975.6 -1 41
2020-03-28 12:00:00 13.3 8 Oeste 17 Oeste 0 976.2 -0.1 48
2020-03-28 11:00:00 10.8 10 Oeste 18 Noroeste 0 976.4 0.5 58
2020-03-28 10:00:00 8 11 Oeste 18 Oeste 0 976.6 1.1 66
2020-03-28 09:00:00 5.2 8 Oeste 13 Oeste 0 976.3 1.1 76
2020-03-28 08:00:00 3.6 7 Oeste 11 Oeste 0 975.9 1.2 80
2020-03-28 07:00:00 2.3 6 Oeste 11 Oeste 0 975.5 1 85
2020-03-28 06:00:00 2.3 6 Sudoeste 8 Oeste 0 975.2 0.5 85
2020-03-28 05:00:00 2.2 4 Oeste 9 Sudoeste 0 974.7 0.2 86
2020-03-28 04:00:00 3 8 Oeste 9 Oeste 0 974.5 0.2 83
2020-03-28 03:00:00 2.8 0 Calma 8 Sudoeste 0 974.7 0.7 87
2020-03-28 02:00:00 3.4 0 Calma 9 Sudoeste 0 974.5 0.9 89
2020-03-28 01:00:00 4 8 Sudoeste 9 Sudoeste 0 974.3 1 87
2020-03-28 00:00:00 4.6 2 Sudoeste 9 Norte 0 974 1.3 86
2020-03-27 23:00:00 4.7 0 Calma 5 Noroeste 0 973.6 2 83
2020-03-27 22:00:00 5.1 0 Calma 9 Este 0 973.3 2.2 74
2020-03-27 21:00:00 7 10 Norte 17 Norte 0 972.7 2 70
2020-03-27 20:00:00 9.9 0 Calma 9 Sudeste 0 971.6 1.1 58
2020-03-27 19:00:00 12.8 9 Sudeste 13 Este 0 971.1 0.5 39
2020-03-27 18:00:00 14.3 10 Este 15 Este 0 970.7 -0.4 37
2020-03-27 17:00:00 14.8 8 Sudeste 17 Este 0 970.5 -1 37
2020-03-27 16:00:00 14.1 4 Este 18 Este 0 970.6 -1.3 38
2020-03-27 15:00:00 14.1 4 Nordeste 18 Este 0 971.1 -1.4 37
2020-03-27 14:00:00 13.2 12 Este 18 Este 0 971.5 -1.4 44
2020-03-27 13:00:00 12.2 8 Este 17 Sudeste 0 971.9 -1 45
2020-03-27 12:00:00 11.1 5 Nordeste 21 Noroeste 0 972.5 -0.4 51
2020-03-27 11:00:00 9.7 5 Nordeste 13 Norte 0 972.9 0.4 55
2020-03-27 10:00:00 7.6 4 Oeste 13 Oeste 0 972.9 0.8 59
2020-03-27 09:00:00 5.9 7 Oeste 13 Noroeste 0 972.9 1.2 68
2020-03-27 08:00:00 3.9 7 Oeste 13 Oeste 0 972.5 1.3 75
2020-03-27 07:00:00 3.5 6 Oeste 13 Oeste 0 972.1 0.9 77
2020-03-27 06:00:00 3.5 8 Sudoeste 11 Sudoeste 0 971.7 0.5 77
2020-03-27 05:00:00 3.5 6 Oeste 13 Oeste 0 971.2 -0.2 78
2020-03-27 04:00:00 3.4 6 Oeste 9 Oeste 0 971.2 0 76
2020-03-27 03:00:00 2.9 4 Oeste 9 Oeste 0 971.2 0 80
2020-03-27 02:00:00 2.3 2 Oeste 8 Oeste 0 971.4 0.1 82
2020-03-27 01:00:00 2.6 6 Oeste 9 Oeste 0 971.2 0.3 75
2020-03-27 00:00:00 2.4 4 Oeste 9 Nordeste 0 971.2 0.8 73
2020-03-26 23:00:00 5 5 Oeste 17 Noroeste 0 971.3 1.3 58
2020-03-26 22:00:00 5.6 6 Noroeste 17 Oeste 0 970.9 1.4 60
2020-03-26 21:00:00 6.4 10 Oeste 21 Oeste 0 970.4 1.4 55
2020-03-26 20:00:00 7.2 5 Oeste 22 Noroeste 0 970 1.6 52
2020-03-26 19:00:00 8.8 11 Oeste 24 Noroeste 0 969.5 1.3 44
2020-03-26 18:00:00 10 13 Noroeste 32 Norte 0 969 0.8 40
2020-03-26 17:00:00 12.3 15 Noroeste 33 Oeste 0 968.4 0.2 34
2020-03-26 16:00:00 12.3 13 Oeste 37 Oeste 0 968.2 -0.7 35
2020-03-26 15:00:00 12.7 16 Noroeste 37 Oeste 0 968.2 -0.7 36
2020-03-26 14:00:00 12.1 17 Oeste 39 Norte 0 968.2 -0.8 38
2020-03-26 13:00:00 11.9 21 Noroeste 37 Noroeste 0 968.9 -0.2 35
2020-03-26 12:00:00 11.7 17 Noroeste 35 Norte 0 968.9 -0.1 39
2020-03-26 11:00:00 9.4 14 Noroeste 35 Oeste 0 969 -0.1 53
2020-03-26 10:00:00 8.4 15 Oeste 28 Oeste 0 969.1 0 66
2020-03-26 09:00:00 8 18 Oeste 28 Sudoeste 0 969 -0.2 66
2020-03-26 08:00:00 7.5 16 Oeste 33 Oeste 0 969.1 -0.3 67
2020-03-26 07:00:00 7.3 17 Oeste 28 Oeste 0 969.1 -0.8 67
2020-03-26 06:00:00 7.4 13 Oeste 30 Oeste 0 969.2 -1.6 66
2020-03-26 05:00:00 7.4 18 Oeste 28 Oeste 0 969.4 -2.1 66
2020-03-26 04:00:00 7.3 18 Oeste 32 Oeste 0 969.9 -1.9 67
2020-03-26 03:00:00 6.9 16 Oeste 28 Oeste 0 970.8 -1.6 67
2020-03-26 02:00:00 6.4 13 Oeste 26 Oeste 0 971.5 -0.5 70
2020-03-26 01:00:00 5.9 13 Sudoeste 18 Sudoeste 0 971.8 0.1 68
2020-03-26 00:00:00 6.4 10 Oeste 22 Oeste 0 972.4 0.9 67
2020-03-25 23:00:00 6.9 8 Noroeste 22 Noroeste 0 972 1.1 66
2020-03-25 22:00:00 9.1 6 Oeste 21 Oeste 0 971.7 1.6 59
2020-03-25 21:00:00 8.1 3 Este 17 Nordeste 0 971.5 1.6 85
2020-03-25 20:00:00 9.4 14 Nordeste 18 Nordeste 0 970.9 0.7 80
2020-03-25 19:00:00 14 11 Este 13 Este 0 970.1 -0.7 65
2020-03-25 18:00:00 15.6 2 Norte 18 Este 0 969.9 -1.4 53
2020-03-25 17:00:00 15.5 13 Este 30 Este 0 970.2 -2 58
2020-03-25 16:00:00 14.8 19 Este 26 Este 0 970.8 -2.1 62
2020-03-25 15:00:00 15.3 17 Este 22 Este 0 971.3 -2.2 62
2020-03-25 14:00:00 15.4 12 Este 21 Este 0 972.2 -1.5 62
2020-03-25 13:00:00 12.9 8 Nordeste 15 Este 0 972.9 -0.9 70
2020-03-25 12:00:00 11.9 6 Este 11 Este 0 973.5 -0.5 74
2020-03-25 11:00:00 10.9 0 Calma 13 Este 0 973.7 -0.3 82
2020-03-25 10:00:00 9.5 0 Calma 5 Norte 0 973.8 0.1 90
2020-03-25 09:00:00 8.5 0 Calma 5 Norte 0 974 0.3 95
2020-03-25 08:00:00 7.4 2 Norte 5 Norte 0 974 0.2 99
2020-03-25 07:00:00 7 0 Calma -- -- 0 973.7 -0.4 99
2020-03-25 06:00:00 6.5 0 Calma 8 Oeste 0 973.7 -0.6 100
2020-03-25 05:00:00 6.3 0 Calma 5 Sur 0 973.8 -0.4 99
2020-03-25 04:00:00 5.8 5 Este 8 Este 0 974.1 0.2 99
2020-03-25 03:00:00 5.8 0 Calma 8 Nordeste 0 974.3 0.4 99
2020-03-25 02:00:00 5.5 6 Nordeste 24 Este 0 974.2 0.2 97
2020-03-25 01:00:00 6.7 0 Calma 4 Oeste 0 973.9 -0.2 94
2020-03-25 00:00:00 8 0 Calma -- -- 0 973.9 0.2 93
2020-03-24 23:00:00 9.9 0 Calma 9 Norte 0 974 0.7 88
2020-03-24 22:00:00 11.5 2 Nordeste 9 Nordeste 0 974.1 0.8 85
2020-03-24 21:00:00 13 0 Calma 8 Este 0 973.7 0.4 76
2020-03-24 20:00:00 14 0 Calma 9 Norte 0 973.3 -0.2 66
2020-03-24 19:00:00 16.1 3 Este 9 Sudeste 0 973.3 -0.7 55
2020-03-24 18:00:00 17 5 Sudeste 13 Este 0 973.3 -1.6 49
2020-03-24 17:00:00 17.2 7 Este 15 Este 0 973.5 -2.3 52
2020-03-24 16:00:00 16.9 9 Sudeste 18 Este 0 974 -2.7 55
2020-03-24 15:00:00 16.7 7 Este 18 Este 0 974.9 -2.1 55
2020-03-24 14:00:00 14.7 10 Este 18 Este 0 975.8 -1.5 68
2020-03-24 13:00:00 13.8 15 Este 24 Nordeste 0 976.7 -0.7 74
2020-03-24 12:00:00 13.2 15 Este 22 Nordeste 0 977 -0.2 77
2020-03-24 11:00:00 11.9 18 Este 22 Este 0 977.3 0.2 85
2020-03-24 10:00:00 11.2 18 Este 26 Este 0 977.4 0.8 91
2020-03-24 09:00:00 10.7 14 Este 18 Este 0 977.2 0.5 95
2020-03-24 08:00:00 7.9 2 Este 9 Este 0 977.1 0.6 99
2020-03-24 07:00:00 8.1 -- -- -- -- 0 976.6 0.2 97
2020-03-24 06:00:00 9.3 8 Este 13 Este 0 976.7 0.4 98
2020-03-24 05:00:00 9.8 11 Este 22 Este 0 976.5 -0.2 96
2020-03-24 04:00:00 9.7 16 Este 18 Este 0 976.4 -0.3 97
2020-03-24 03:00:00 9.4 9 Este 15 Este 0 976.3 -0.5 96
2020-03-24 02:00:00 9.7 14 Este 17 Este 0 976.7 0.1 97
2020-03-24 01:00:00 9.5 8 Este 11 Nordeste 0 976.7 0.3 96
2020-03-24 00:00:00 8.7 9 Este -- -- 0 976.8 0.7 99
2020-03-23 23:00:00 8.4 9 Este 13 Este 0 976.6 0.7 94
2020-03-23 22:00:00 10 8 Este 9 Este 0 976.4 1.7 94
2020-03-23 21:00:00 10.5 8 Este 22 Este 0 976.1 1.8 89
2020-03-23 20:00:00 11.8 11 Este 28 Este 0.5 975.9 2 88
2020-03-23 19:00:00 14.2 14 Este 21 Este 0 974.7 0.8 65
2020-03-23 18:00:00 15.1 18 Este 24 Este 0 974.3 0.1 64
2020-03-23 17:00:00 16.2 14 Este 26 Este 0 973.9 -1 58
2020-03-23 16:00:00 16.9 15 Este 28 Este 0 973.9 -1.7 57
2020-03-23 15:00:00 16.6 17 Este 28 Este 0 974.2 -1.6 58
2020-03-23 14:00:00 16.3 21 Este 28 Este 0 974.9 -1 62
2020-03-23 13:00:00 15 18 Este 26 Este 0 975.6 -0.4 66
2020-03-23 12:00:00 14.3 17 Este 26 Sudeste 0 975.8 0.2 67
2020-03-23 11:00:00 13.9 13 Este 18 Este 0 975.9 0.9 76
2020-03-23 10:00:00 12.4 6 Este 9 Este 0 976 1.4 83
2020-03-23 09:00:00 9.2 0 Calma 2 Nordeste 0 975.6 1.3 95
2020-03-23 08:00:00 8.4 0 Calma 5 Oeste 0 975 1 98
2020-03-23 07:00:00 7.9 0 Calma -- -- 0 974.6 0.8 97
2020-03-23 06:00:00 7.9 0 Calma -- -- 0 974.3 0.5 98
2020-03-23 05:00:00 7.8 0 Calma 5 Noroeste 0 974 0.2 97
2020-03-23 04:00:00 8 4 Oeste 5 Oeste 0 973.8 0.3 97
2020-03-23 03:00:00 8 0 Calma 5 Norte 0.2 973.8 0.4 96
2020-03-23 02:00:00 7.3 0 Calma 5 Sudoeste 0 973.8 0.9 95
2020-03-23 01:00:00 6.9 0 Calma -- -- 0 973.5 1 96
2020-03-23 00:00:00 7.5 0 Calma 8 Oeste 0 973.4 1.5 95
2020-03-22 23:00:00 7.9 3 Oeste 8 Oeste 0 972.9 2.1 93
2020-03-22 22:00:00 9.4 0 Calma 5 Sudoeste 0 972.5 2.4 80
2020-03-22 21:00:00 10.2 0 Calma 8 Este 0 971.9 2.4 79
2020-03-22 20:00:00 11.2 4 Este 15 Este 0 970.8 1.6 73
2020-03-22 19:00:00 14.7 14 Este 24 Este 0 970.1 0.9 56
2020-03-22 18:00:00 16.8 14 Este 26 Este 0 969.5 -0.2 48
2020-03-22 17:00:00 17.6 17 Este 26 Este 0 969.2 -0.9 46
2020-03-22 16:00:00 17.6 17 Sudeste 30 Este 0 969.2 -1.3 45
2020-03-22 15:00:00 17.5 14 Este 26 Este 0 969.7 -1.1 51
2020-03-22 14:00:00 16.6 12 Este 18 Este 0 970.1 -1.1 58
2020-03-22 13:00:00 14.9 8 Nordeste 15 Este 0 970.5 -0.5 61
2020-03-22 12:00:00 13.9 6 Este 15 Nordeste 0 970.8 0.1 62
2020-03-22 11:00:00 12.5 9 Nordeste 13 Nordeste 0 971.2 0.9 66
2020-03-22 10:00:00 10.9 3 Noroeste 5 Oeste 0 971 1.1 73
2020-03-22 09:00:00 8.7 3 Sudoeste 8 Oeste 0 970.7 1 79
2020-03-22 08:00:00 6.2 5 Sudoeste 9 Sudoeste 0 970.3 0.8 92
2020-03-22 07:00:00 6.4 5 Oeste 8 Oeste 0 969.9 0.4 89
2020-03-22 06:00:00 6.7 6 Noroeste 9 Noroeste 0 969.7 0.2 92
2020-03-22 05:00:00 7.7 4 Sudeste 11 Este 0 969.5 0 79
2020-03-22 04:00:00 6.5 5 Sudeste 11 Sudeste 0 969.5 0.1 83
2020-03-22 03:00:00 5.5 4 Este 8 Este 0 969.5 0 91
2020-03-22 02:00:00 6.6 2 Sur 8 Nordeste 0 969.5 0.1 92
2020-03-22 01:00:00 6 9 Este 11 Este 0 969.4 0.2 90
2020-03-22 00:00:00 7.5 9 Este 13 Este 0 969.5 0.7 89
2020-03-21 23:00:00 9.3 10 Este 15 Este 0 969.4 1.1 85
2020-03-21 22:00:00 9.3 7 Este 11 Este 0 969.2 1.5 80
2020-03-21 21:00:00 9.9 10 Este -- -- 0 968.8 1.4 79
2020-03-21 20:00:00 10.4 9 Este 21 Este 0 968.3 0.8 77
2020-03-21 19:00:00 13.3 17 Este 33 Este 0 967.7 -0.1 65
2020-03-21 18:00:00 15.1 25 Este 39 Este 0 967.4 -1 58
2020-03-21 17:00:00 15.6 28 Este 39 Este 0 967.5 -1.7 59
2020-03-21 16:00:00 15.5 31 Este 39 Este 0 967.8 -2.2 61
2020-03-21 15:00:00 15.3 31 Este 42 Este 0 968.4 -2.4 64
2020-03-21 14:00:00 14.2 34 Este 46 Este 0 969.2 -2.3 65
2020-03-21 13:00:00 13.7 34 Este 42 Nordeste 0 970 -2 67
2020-03-21 12:00:00 12.1 29 Este 35 Nordeste 0 970.8 -1.2 74
2020-03-21 11:00:00 11.2 27 Este 33 Este 0 971.5 -0.8 77
2020-03-21 10:00:00 9.1 21 Nordeste 26 Nordeste 0 972 0.1 85
2020-03-21 09:00:00 7.5 19 Este 22 Este 0 972 -0.1 92
2020-03-21 08:00:00 7.3 14 Este 24 Nordeste 0 972.3 0.1 93
2020-03-21 07:00:00 6.8 11 Nordeste 21 Nordeste 0 971.9 -0.3 95
2020-03-21 06:00:00 6.2 15 Este 22 Este 0 972.1 -0.4 95
2020-03-21 05:00:00 5.4 14 Este 17 Este 0 972.2 -0.6 96
2020-03-21 04:00:00 6.8 10 Este 21 Nordeste 0 972.2 -0.9 92
2020-03-21 03:00:00 7.2 16 Nordeste 21 Este 0 972.5 -0.9 93
2020-03-21 02:00:00 8.8 16 Este 21 Este 0 972.8 -0.6 90
2020-03-21 01:00:00 8.8 12 Este 18 Nordeste 0 973.1 -0.2 88
2020-03-21 00:00:00 8.4 15 Este 18 Este 0 973.4 0.4 91
2020-03-20 23:00:00 8.6 11 Este 15 Este 0 973.4 0.4 89
2020-03-20 22:00:00 8.8 9 Nordeste 13 Este 0 973.3 0.5 87
2020-03-20 21:00:00 10.1 12 Nordeste 22 Este 0 973 0.2 83
2020-03-20 20:00:00 11 14 Este 28 Este 0 973 0.1 79
2020-03-20 19:00:00 13 25 Este 37 Este 0 972.8 -0.3 69
2020-03-20 18:00:00 14.2 26 Este 42 Este 0 972.8 -0.6 62
2020-03-20 17:00:00 14.4 32 Este 46 Este 0 972.9 -1.4 61
2020-03-20 16:00:00 14.4 34 Este 50 Este 0 973.1 -2 63
2020-03-20 15:00:00 14.2 34 Este 46 Este 0 973.4 -2.4 67
2020-03-20 14:00:00 12.8 37 Este 50 Este 0 974.3 -1.9 72
2020-03-20 13:00:00 11 35 Este 48 Nordeste -- 975.1 -1.1 78
2020-03-20 12:00:00 11 36 Este 45 Este 0 975.8 -0.2 79
2020-03-20 11:00:00 10.2 33 Este 45 Este 0 976.2 0.3 81
2020-03-20 10:00:00 8.1 30 Este 39 Este 0 976.2 0.6 90
2020-03-20 09:00:00 7.5 24 Este 39 Este 0 976 0.4 92
2020-03-20 08:00:00 7.1 28 Este 39 Este 0 975.9 0.4 91
2020-03-20 07:00:00 6.5 22 Este 33 Este 0 975.6 0 91
2020-03-20 06:00:00 6.8 24 Este 33 Nordeste 0 975.6 -0.4 88
2020-03-20 05:00:00 7.2 22 Este 30 Este 0 975.5 -0.5 85
2020-03-20 04:00:00 7.3 22 Este 30 Nordeste 0 975.6 -0.4 83
2020-03-20 03:00:00 8.2 24 Nordeste 30 Nordeste 0 976 -0.1 80
2020-03-20 02:00:00 8.1 17 Nordeste 22 Nordeste 0 976 -0.1 90
2020-03-20 01:00:00 8.1 12 Nordeste 18 Nordeste 0 976 0.1 89
2020-03-20 00:00:00 8.7 13 Este 22 Este 0 976.1 0.2 91
2020-03-19 23:00:00 8.1 12 Este 13 Este 0 976.1 0.3 94
2020-03-19 22:00:00 8.6 6 Nordeste 17 Este 0 975.9 0.4 93
2020-03-19 21:00:00 10 12 Este 13 Este 0 975.9 0.4 85
2020-03-19 20:00:00 11.6 10 Este 28 Este 0 975.8 0 76
2020-03-19 19:00:00 13.4 23 Este 32 Este 0 975.5 -0.7 70
2020-03-19 18:00:00 15.2 26 Este 41 Este 0 975.5 -1.3 59
2020-03-19 17:00:00 16.3 28 Este 42 Este 0 975.8 -1.9 63
2020-03-19 16:00:00 17 28 Este 41 Este 0 976.2 -2.3 65
2020-03-19 15:00:00 17.1 31 Este 45 Este 0 976.8 -2.7 65
2020-03-19 14:00:00 16.7 28 Este 41 Este 0 977.7 -2.6 68
2020-03-19 13:00:00 15.6 29 Este 41 Este 0 978.5 -2 70
2020-03-19 12:00:00 13.5 18 Este 26 Este 0 979.5 -0.7 83
2020-03-19 11:00:00 10.4 13 Este 17 Este 0 980.3 0.3 94
2020-03-19 10:00:00 9.5 11 Este 15 Sudeste 0 980.5 0.5 95
2020-03-19 09:00:00 8.9 8 Este 11 Este 0 980.2 0.3 99
2020-03-19 08:00:00 8 9 Este 11 Este 0 980 0 100
2020-03-19 07:00:00 6.2 0 Calma 9 Este 0 980 -0.1 99
2020-03-19 06:00:00 6.4 8 Este 11 Este 0 979.9 -0.7 99
2020-03-19 05:00:00 7.2 8 Este -- -- 0 980 -1.2 97
2020-03-19 04:00:00 8.6 0 Calma 9 Este 0 980.1 -1.3 96
2020-03-19 03:00:00 9.5 8 Este 9 Este 0 980.6 -1.1 96
2020-03-19 02:00:00 9.8 7 Este 9 Este 0 981.2 -0.7 95
2020-03-19 01:00:00 9.2 9 Este 11 Este 0 981.4 -0.7 100
2020-03-19 00:00:00 8.2 6 Este 11 Este 0 981.7 -0.4 95
2020-03-18 23:00:00 9.5 0 Calma 8 Este 0 981.9 0 95
2020-03-18 22:00:00 10 0 Calma 9 Este 0 982.1 0.3 95
2020-03-18 21:00:00 10.9 0 Calma 5 Este 0 982.1 0.4 93
2020-03-18 20:00:00 11.7 4 Este 5 Este 0 981.9 0.1 88
2020-03-18 19:00:00 13.2 4 Este 17 Este 0 981.8 -0.5 85
2020-03-18 18:00:00 13.8 13 Este 18 Este 0 981.7 -1 82
2020-03-18 17:00:00 14.2 15 Este 22 Este 0 981.8 -1.7 76
2020-03-18 16:00:00 14.7 18 Este 24 Este 0 982.3 -2 73
2020-03-18 15:00:00 14.9 15 Este 22 Este 0 982.7 -2.2 76
2020-03-18 14:00:00 13.9 11 Este 21 Este 0 983.5 -1.9 84
2020-03-18 13:00:00 13.5 14 Este 18 Este 0 984.3 -1.3 85
2020-03-18 12:00:00 12.1 12 Sudeste 18 Este 0 984.9 -0.4 90
2020-03-18 11:00:00 10.9 9 Este 13 Este 0 985.4 0.1 92
2020-03-18 10:00:00 8.3 0 Calma 5 Oeste 0 985.6 0.4 99
2020-03-18 09:00:00 7 3 Noroeste 8 Norte 0 985.3 0.1 100
2020-03-18 08:00:00 6.6 0 Calma 4 Oeste 0 985.3 0 100
2020-03-18 07:00:00 6.4 0 Calma 8 Sudoeste 0 985.2 -0.2 100
2020-03-18 06:00:00 6.1 2 Noroeste 11 Sudoeste 0 985.2 -0.6 100
2020-03-18 05:00:00 5.6 5 Sudoeste 8 Sudoeste 0 985.3 -0.7 100
2020-03-18 04:00:00 6 4 Sudoeste 8 Oeste 0 985.4 -0.8 100
2020-03-18 03:00:00 5.7 0 Calma 4 Oeste 0 985.8 -0.6 100
2020-03-18 02:00:00 6 0 Calma 9 Este 0 986 -0.7 100
2020-03-18 01:00:00 6.1 0 Calma -- -- 0 986.2 -0.6 100
2020-03-18 00:00:00 6.8 0 Calma -- -- 0 986.4 -0.2 100
2020-03-17 23:00:00 7.7 0 Calma 8 Sudoeste 0 986.7 0.4 100
2020-03-17 22:00:00 7.9 0 Calma 5 Sudoeste 0 986.8 0.8 99
2020-03-17 21:00:00 9.3 0 Calma -- -- 0 986.6 0.9 98
2020-03-17 20:00:00 10.3 0 Calma -- -- 0 986.3 0.8 96
2020-03-17 19:00:00 11 8 Este 11 Este 0 986 0.6 94
2020-03-17 18:00:00 11.2 10 Este 17 Este 0 985.7 0.2 93
2020-03-17 17:00:00 11.3 10 Nordeste 13 Este 0 985.5 -0.1 90
2020-03-17 16:00:00 11 0 Calma 5 Norte 0 985.4 -0.5 91
2020-03-17 15:00:00 10.3 0 Calma 9 Oeste 0 985.5 -0.2 92
2020-03-17 14:00:00 9.8 0 Calma 8 Oeste 0 985.6 0.1 94
2020-03-17 13:00:00 9.4 0 Calma 8 Sudoeste 0 985.9 0.8 96
2020-03-17 12:00:00 8.9 4 Oeste 13 Sudoeste 0 985.7 1.2 96
2020-03-17 11:00:00 8.1 7 Sudoeste 11 Sudoeste 0 985.5 1.6 96
2020-03-17 10:00:00 8.1 0 Calma 5 Oeste 0 985.1 1.7 97
2020-03-17 09:00:00 7.6 4 Oeste 8 Oeste 0 984.5 1.9 99
2020-03-17 08:00:00 7.1 0 Calma 5 Oeste 0 983.9 1.8 100
2020-03-17 07:00:00 7.1 0 Calma -- -- 0.3 983.4 1.6 100
2020-03-17 06:00:00 7 2 Oeste 8 Sudoeste 0.8 982.6 0.7 100
2020-03-17 05:00:00 7.1 0 Calma 5 Norte 0.7 982.1 0.3 100
2020-03-17 04:00:00 7.1 0 Calma -- -- 0.7 981.8 0.2 100
2020-03-17 03:00:00 7.3 0 Calma 5 Norte 0.9 981.9 0.4 99
2020-03-17 02:00:00 7.5 0 Calma 8 Norte 1.5 981.8 0.5 99
2020-03-17 01:00:00 8.1 6 Oeste 15 Sudoeste 3 981.6 1.4 96
2020-03-17 00:00:00 7.7 10 Sudoeste 15 Sur 2.7 981.5 2.9 97
2020-03-16 23:00:00 8 3 Noroeste 17 Sur 3.6 981.3 3.3 97
2020-03-16 22:00:00 8.1 10 Sudoeste 18 Sudoeste 2.1 980.2 3.1 94
2020-03-16 21:00:00 7.7 10 Sudoeste 17 Sudoeste 0.3 978.6 2.1 95
2020-03-16 20:00:00 7.5 10 Sudoeste 18 Sudoeste 0.8 978 1.8 94
2020-03-16 19:00:00 7.2 11 Sudoeste 17 Oeste 1.4 977.1 1.1 94
2020-03-16 18:00:00 7.2 12 Sudoeste 18 Sudoeste 1.8 976.5 0.5 93
2020-03-16 17:00:00 6.8 12 Sudoeste 21 Sudoeste 0.7 976.2 0.1 92
2020-03-16 16:00:00 6.2 9 Oeste 18 Sudoeste 1.2 976 0.2 94
2020-03-16 15:00:00 5 10 Oeste 21 Oeste 1.9 976 1 94
2020-03-16 14:00:00 4.3 9 Oeste 22 Oeste 2.4 976.1 1.8 94
2020-03-16 13:00:00 4.3 9 Oeste 30 Sudoeste 3.7 975.8 1.8 94
2020-03-16 12:00:00 3.8 15 Oeste 28 Sudoeste 3.2 975 1.6 93
2020-03-16 11:00:00 3.5 9 Oeste 17 Oeste 3 974.3 1.4 94
2020-03-16 10:00:00 3.3 14 Oeste 26 Oeste 3.7 974 1.9 94
2020-03-16 09:00:00 4.2 9 Oeste 17 Oeste 2.3 973.4 2.1 96
2020-03-16 08:00:00 4.2 13 Oeste 26 Sudoeste 2 972.9 1.7 94
2020-03-16 07:00:00 4.8 13 Oeste 24 Sudoeste 1.3 972.1 1.4 93
2020-03-16 06:00:00 5 12 Oeste 18 Oeste 1.4 971.3 0.8 94
2020-03-16 05:00:00 5.8 11 Oeste 24 Oeste 2.8 971.2 0.7 95
2020-03-16 04:00:00 6.4 12 Oeste 21 Oeste 1.7 970.7 0.2 94
2020-03-16 03:00:00 6.8 6 Oeste 17 Oeste 2.5 970.5 0.2 95
2020-03-16 02:00:00 6.8 2 Oeste 21 Oeste 1.6 970.5 0.5 92
2020-03-16 01:00:00 7.4 10 Oeste 18 Oeste 1.7 970.5 1.2 87
2020-03-16 00:00:00 8.8 10 Oeste 13 Oeste 2.6 970.3 2.7 94
2020-03-15 23:00:00 9.5 0 Calma 9 Sudoeste 2.1 970 2.9 87
2020-03-15 22:00:00 10.4 9 Sur 15 Sudoeste 0 969.3 1.5 84
2020-03-15 21:00:00 11.4 9 Noroeste 24 Norte 0 967.6 0.8 87
2020-03-15 20:00:00 12.3 11 Este 17 Sur 6.2 967.1 0.3 93
2020-03-15 19:00:00 13.8 13 Este 35 Este 2 967.8 0.1 83
2020-03-15 18:00:00 13.7 18 Nordeste 42 Este 2.1 966.8 -1.8 84
2020-03-15 17:00:00 16 33 Este 48 Este 0 966.8 -3 62
2020-03-15 16:00:00 16.9 32 Este 42 Este 0 967.7 -3.6 56
2020-03-15 15:00:00 16.6 28 Este 39 Este 0 968.6 -3.9 55
2020-03-15 14:00:00 17.3 28 Este 39 Este 0 969.8 -3.6 49
2020-03-15 13:00:00 15.3 27 Este 39 Este 0 971.3 -2.8 53
2020-03-15 12:00:00 13.1 25 Este 33 Este 0 972.5 -1.7 61
2020-03-15 11:00:00 10.5 20 Este 30 Este 0 973.4 -0.8 72
2020-03-15 10:00:00 8.6 13 Este 17 Este 0 974.1 -0.2 78
2020-03-15 09:00:00 4.7 0 Calma 4 Este 0 974.2 -0.3 89
2020-03-15 08:00:00 1.1 0 Calma -- -- 0 974.2 -0.4 99
2020-03-15 07:00:00 0.3 0 Calma -- -- 0 974.3 -0.8 97
2020-03-15 06:00:00 0.8 0 Calma -- -- 0 974.5 -1.2 99
2020-03-15 05:00:00 1.4 0 Calma -- -- 0 974.6 -1.4 97
2020-03-15 04:00:00 1.7 0 Calma -- -- 0 975.1 -1.3 96
2020-03-15 03:00:00 2.8 0 Calma 5 Nordeste 0 975.7 -1.1 98
2020-03-15 02:00:00 3.2 0 Calma -- -- 0 976 -1.1 95
2020-03-15 01:00:00 4.1 0 Calma -- -- 0 976.4 -0.7 93
2020-03-15 00:00:00 4.7 0 Calma 4 Este 0 976.8 -0.3 83
2020-03-14 23:00:00 6.7 0 Calma 5 Noroeste 0 977.1 0.2 81
2020-03-14 22:00:00 6.4 3 Este 11 Nordeste 0 977.1 0.5 78
2020-03-14 21:00:00 8.8 0 Calma 13 Sudeste 0 977.1 0.5 76
2020-03-14 20:00:00 12 10 Sudeste 15 Este 0 976.9 0.1 64
2020-03-14 19:00:00 16.3 3 Norte 9 Norte 0 976.6 -0.7 43
2020-03-14 18:00:00 18.4 5 Sudoeste 15 Sudoeste 0 976.6 -1.3 31
2020-03-14 17:00:00 18.3 5 Sudoeste 15 Oeste 0 976.8 -2.2 33
2020-03-14 16:00:00 17.9 8 Oeste 21 Sudoeste 0 977.3 -2.6 34
2020-03-14 15:00:00 16.8 6 Oeste 18 Sudoeste 0 977.9 -2.4 34
2020-03-14 14:00:00 15.7 11 Sudoeste 21 Sudoeste 0 979 -1.8 37
2020-03-14 13:00:00 14.4 10 Oeste 21 Sudoeste 0 979.9 -0.9 45
2020-03-14 12:00:00 12.9 10 Oeste 22 Oeste 0 980.3 -0.2 51
2020-03-14 11:00:00 10.7 13 Oeste 22 Oeste 0 980.8 0.7 60
2020-03-14 10:00:00 8.6 13 Oeste 21 Sudoeste 0 980.8 1.2 68
2020-03-14 09:00:00 5.8 10 Oeste 18 Oeste 0 980.5 1.2 78
2020-03-14 08:00:00 4.1 13 Oeste 18 Oeste 0 980.1 0.9 84
2020-03-14 07:00:00 3.6 11 Oeste 17 Sudoeste 0 979.6 0.5 88
2020-03-14 06:00:00 3.7 12 Sudoeste 15 Oeste 0 979.3 -0.4 87
2020-03-14 05:00:00 3.6 8 Oeste 15 Noroeste 0 979.2 -0.6 89
2020-03-14 04:00:00 4.7 8 Oeste 17 Oeste 0 979.1 -0.7 85
2020-03-14 03:00:00 4.8 10 Oeste 15 Oeste 0 979.7 -0.3 85
2020-03-14 02:00:00 5.1 7 Oeste 13 Oeste 0 979.8 -0.1 87
2020-03-14 01:00:00 5.6 10 Oeste 15 Oeste 0 979.8 0.7 85
2020-03-14 00:00:00 6.5 7 Oeste 9 Oeste 0 980 1.3 82
2020-03-13 23:00:00 7.2 6 Oeste 11 Oeste 0 979.9 1.3 76
2020-03-13 22:00:00 8.6 6 Oeste 11 Oeste 0 979.1 0.5 70
2020-03-13 21:00:00 9.2 4 Oeste 13 Sudoeste 0 978.7 0.5 68
2020-03-13 20:00:00 10.3 5 Sudoeste 13 Oeste 0 978.6 0.4 69
2020-03-13 19:00:00 11.7 9 Oeste 17 Noroeste 0 978.6 0.3 64
2020-03-13 18:00:00 12.2 8 Noroeste 21 Oeste 0 978.2 -0.1 64
2020-03-13 17:00:00 12.8 11 Noroeste 22 Oeste 0 978.2 -0.7 62
2020-03-13 16:00:00 13.4 14 Oeste 22 Oeste 0 978.3 -1.2 61
2020-03-13 15:00:00 13.9 11 Oeste 28 Oeste 0 978.3 -1.4 60
2020-03-13 14:00:00 13.7 12 Oeste 22 Oeste 0 978.9 -0.9 62
2020-03-13 13:00:00 13.8 12 Oeste 22 Oeste 0 979.5 -0.6 60
2020-03-13 12:00:00 13.2 12 Oeste 24 Oeste 0 979.7 -0.5 62
2020-03-13 11:00:00 12.4 12 Oeste 26 Oeste 0 979.8 -0.1 65
2020-03-13 10:00:00 11.3 12 Oeste 24 Oeste 0 980.1 0.3 69
2020-03-13 09:00:00 10.5 12 Oeste 22 Noroeste 0 980.2 0.6 73
2020-03-13 08:00:00 10.2 9 Oeste 17 Oeste 0 979.9 0.5 74
2020-03-13 07:00:00 10.3 9 Oeste 26 Oeste 0 979.8 0.3 73
2020-03-13 06:00:00 10.3 10 Oeste 17 Oeste 0 979.6 -0.2 78
2020-03-13 05:00:00 10.5 12 Oeste 22 Oeste 0 979.4 -0.5 79
2020-03-13 04:00:00 10.9 11 Oeste 21 Oeste 0 979.5 -0.8 79
2020-03-13 03:00:00 10.7 9 Oeste 22 Oeste 0 979.8 -0.4 81
2020-03-13 02:00:00 11.1 13 Oeste 24 Oeste 0 979.9 -0.2 79
2020-03-13 01:00:00 11.4 10 Oeste 24 Oeste 0 980.3 0.4 79
2020-03-13 00:00:00 12.1 11 Oeste 21 Noroeste 0 980.2 0.8 78
2020-03-12 23:00:00 12.3 10 Oeste 21 Oeste 0 980.1 1.2 77
2020-03-12 22:00:00 12 9 Oeste 21 Oeste 0.1 979.9 1.7 80
2020-03-12 21:00:00 12.5 8 Oeste 17 Oeste 0 979.4 1.8 77
2020-03-12 20:00:00 13 8 Oeste 21 Oeste 0 978.9 1.9 77
2020-03-12 19:00:00 13.9 9 Oeste 22 Oeste 0 978.2 1.3 73
2020-03-12 18:00:00 15.3 10 Noroeste 21 Oeste 0 977.6 0.6 69
2020-03-12 17:00:00 16.9 7 Noroeste 21 Noroeste 0 977 -0.6 64
2020-03-12 16:00:00 18.1 13 Noroeste 22 Noroeste 0 976.9 -1.5 59
2020-03-12 15:00:00 19.2 12 Noroeste 26 Oeste 0 977 -1.9 56
2020-03-12 14:00:00 18.9 11 Oeste 18 Oeste 0 977.6 -1.5 57
2020-03-12 13:00:00 17.8 9 Oeste 21 Oeste 0 978.4 -0.6 61
2020-03-12 12:00:00 15.7 12 Oeste 22 Oeste 0 978.9 0.1 68
2020-03-12 11:00:00 15.6 12 Oeste 22 Oeste 0 979.1 0.7 70
2020-03-12 10:00:00 14.6 12 Oeste 18 Oeste 0 979 1.4 73
2020-03-12 09:00:00 11.9 10 Sudoeste 15 Oeste 0 978.8 1.4 85
2020-03-12 08:00:00 8.9 3 Sudoeste 8 Sudoeste 0 978.4 0.9 97
2020-03-12 07:00:00 9 0 Calma 5 Sudoeste 0 977.6 -0.3 93
2020-03-12 06:00:00 9.3 0 Calma 8 Oeste 0 977.4 -0.9 95
2020-03-12 05:00:00 9.3 0 Calma -- -- 0 977.5 -1.1 94
2020-03-12 04:00:00 9.7 0 Calma 4 Oeste 0 977.9 -0.9 94
2020-03-12 03:00:00 9.8 0 Calma 8 Noroeste 0 978.3 -0.7 93
2020-03-12 02:00:00 10.2 0 Calma 8 Sudeste 0 978.6 -0.4 90
2020-03-12 01:00:00 11 0 Calma -- -- 0 978.8 -0.1 87
2020-03-12 00:00:00 11.3 2 Norte 5 Norte 0 979 0.4 85
2020-03-11 23:00:00 12.1 0 Calma -- -- 0 979 0.6 82
2020-03-11 22:00:00 12.7 0 Calma -- -- 0 978.9 0.9 79
2020-03-11 21:00:00 14.1 0 Calma 5 Norte 0 978.6 0.9 70
2020-03-11 20:00:00 15.7 0 Calma 8 Nordeste 0 978.4 0.5 63
2020-03-11 19:00:00 19.5 4 Sudeste 9 Sudeste 0 978 -0.3 53
2020-03-11 18:00:00 23 4 Este 9 Este 0 977.7 -1.2 37
2020-03-11 17:00:00 23.8 0 Calma 9 Sudeste 0 977.9 -2 30
2020-03-11 16:00:00 22.3 4 Nordeste 9 Este 0 978.3 -2.7 39
2020-03-11 15:00:00 21.8 2 Este 11 Norte 0 978.9 -3 41
2020-03-11 14:00:00 20.9 2 Sudoeste 9 Sudoeste 0 979.9 -2.5 43
2020-03-11 13:00:00 18.5 3 Oeste 11 Oeste 0 981 -1.8 49
2020-03-11 12:00:00 16.5 7 Oeste 17 Oeste 0 981.9 -0.9 55
2020-03-11 11:00:00 14 9 Oeste 17 Oeste 0 982.4 -0.2 65
2020-03-11 10:00:00 11.2 8 Oeste 15 Oeste 0 982.8 0.6 74
2020-03-11 09:00:00 8.2 9 Oeste 13 Oeste 0 982.8 0.7 86
2020-03-11 08:00:00 4.5 0 Calma 8 Nordeste 0 982.6 0.6 98
2020-03-11 07:00:00 5.1 7 Oeste 11 Sudoeste 0 982.2 0.2 98
2020-03-11 06:00:00 5 5 Oeste 13 Oeste 0 982.1 -0.5 98
2020-03-11 05:00:00 5.3 6 Oeste 9 Oeste 0 982 -1.1 98
2020-03-11 04:00:00 5.6 0 Calma -- -- 0 982 -1.2 97
2020-03-11 03:00:00 6.1 0 Calma -- -- 0 982.6 -0.6 95
2020-03-11 02:00:00 6.7 0 Calma 9 Oeste 0 983.1 0.2 94
2020-03-11 01:00:00 7.1 0 Calma 5 Oeste 0 983.2 0.7 93
2020-03-11 00:00:00 8.3 0 Calma 4 Oeste 0 983.2 1 86
2020-03-10 23:00:00 9.1 3 Nordeste 8 Nordeste 0 982.9 1.3 76
2020-03-10 22:00:00 10 2 Este 13 Este 0 982.5 1.5 74
2020-03-10 21:00:00 10.6 10 Este 15 Este 0 982.2 1.6 77
2020-03-10 20:00:00 14.2 0 Calma 5 Este 0 981.6 1.3 63
2020-03-10 19:00:00 17.9 9 Este 15 Este 0 981 0.5 53
2020-03-10 18:00:00 22 3 Oeste 22 Oeste 0 980.6 -0.1 37
2020-03-10 17:00:00 21.3 16 Oeste 30 Oeste 0 980.3 -0.8 37
2020-03-10 16:00:00 21 17 Oeste 32 Oeste 0 980.5 -1.6 38
2020-03-10 15:00:00 20.2 15 Oeste 28 Oeste 0 980.7 -1.9 40
2020-03-10 14:00:00 19.6 18 Oeste 30 Sudoeste 0 981.1 -2 42
2020-03-10 13:00:00 18.1 14 Oeste 30 Oeste 0 982.1 -1.4 45
2020-03-10 12:00:00 16.2 17 Oeste 33 Noroeste 0 982.6 -0.7 49
2020-03-10 11:00:00 14.4 11 Oeste 22 Oeste 0 983.1 0.3 53
2020-03-10 10:00:00 10.2 4 Noroeste 8 Noroeste 0 983.5 0.7 71
2020-03-10 09:00:00 7.1 0 Calma 4 Oeste 0 983.3 0.6 85
2020-03-10 08:00:00 6 0 Calma 4 Oeste 0 982.8 0.1 88
2020-03-10 07:00:00 6 0 Calma -- -- 0 982.8 0.1 84
2020-03-10 06:00:00 6.1 0 Calma 8 Sudoeste 0 982.7 -0.5 83
2020-03-10 05:00:00 5.6 5 Oeste 9 Oeste 0 982.7 -0.9 87
2020-03-10 04:00:00 5.1 0 Calma 4 Sudoeste 0 982.7 -1.2 88
2020-03-10 03:00:00 6.3 5 Oeste 17 Oeste 0 983.2 -1.2 85
2020-03-10 02:00:00 6.3 9 Oeste 13 Oeste 0 983.6 -1.2 85
2020-03-10 01:00:00 6.8 9 Oeste 13 Oeste 0 983.9 -1.2 83
2020-03-10 00:00:00 7.4 3 Noroeste 15 Oeste 0 984.4 -0.5 82
2020-03-09 23:00:00 8.2 9 Oeste 15 Sudoeste 0 984.8 0.2 75
2020-03-09 22:00:00 9.4 10 Oeste 21 Oeste 0 985.1 1.1 68
2020-03-09 21:00:00 10.1 10 Sudoeste 17 Oeste 0 984.9 1.3 64
2020-03-09 20:00:00 10.3 5 Oeste 15 Oeste 0 984.6 1.5 64
2020-03-09 19:00:00 11.1 9 Noroeste 28 Oeste 0 984 0.9 59
2020-03-09 18:00:00 12.3 12 Noroeste 26 Oeste 0 983.6 0 57
2020-03-09 17:00:00 13 12 Noroeste 30 Oeste 0 983.1 -0.6 55
2020-03-09 16:00:00 13.7 12 Oeste 33 Oeste 0 983.1 -1.6 52
2020-03-09 15:00:00 12.5 14 Oeste 33 Oeste 0 983.6 -1.5 58
2020-03-09 14:00:00 13.6 24 Oeste 35 Oeste 0 983.7 -1.1 53
2020-03-09 13:00:00 12.8 18 Oeste 35 Oeste 0 984.7 0.4 57
2020-03-09 12:00:00 12.9 16 Oeste 32 Oeste 0 985.1 1.2 55
2020-03-09 11:00:00 11.1 15 Oeste 32 Oeste 0 984.8 1.2 62
2020-03-09 10:00:00 10.1 16 Oeste 30 Oeste 0 984.3 1.1 67
2020-03-09 09:00:00 9.6 15 Oeste 28 Oeste 0 983.9 1.3 69
2020-03-09 08:00:00 8.7 8 Oeste 21 Oeste 0 983.6 1.1 73
2020-03-09 07:00:00 8.8 11 Oeste 26 Oeste 0 983.2 1 71
2020-03-09 06:00:00 8.6 4 Oeste 21 Oeste 0 982.6 0.5 74
2020-03-09 05:00:00 9 9 Noroeste 18 Oeste 0 982.5 0.1 75
2020-03-09 04:00:00 9.5 10 Oeste 28 Noroeste 0 982.2 0.4 71
2020-03-09 03:00:00 10 13 Oeste 26 Oeste 0 982.1 0.1 73
2020-03-09 02:00:00 10.4 10 Oeste 21 Oeste 0 982.4 1 72
2020-03-09 01:00:00 10.7 12 Oeste 21 Noroeste 0 981.8 0.8 71
2020-03-09 00:00:00 10.8 12 Noroeste 22 Oeste 0 982 1.9 74
2020-03-08 23:00:00 11.4 9 Oeste 15 Sudoeste 0 981.4 1.8 73
2020-03-08 22:00:00 12 7 Oeste 21 Noroeste 0 981 1.9 74
2020-03-08 21:00:00 13.1 8 Oeste 13 Oeste 0 980.1 1.5 69
2020-03-08 20:00:00 13.9 5 Oeste 24 Oeste 0 979.6 1.1 66
2020-03-08 19:00:00 14.9 16 Oeste 26 Oeste 0 979.1 0.2 59
2020-03-08 18:00:00 16.3 12 Oeste 30 Oeste 0 978.6 -0.5 51
2020-03-08 17:00:00 16.6 12 Oeste 35 Oeste 0 978.5 -1 49
2020-03-08 16:00:00 16.4 18 Oeste 30 Oeste 0 978.9 -1.8 49
2020-03-08 15:00:00 15.8 14 Oeste 28 Oeste 0 979.1 -2.3 49
2020-03-08 14:00:00 16 18 Oeste 32 Oeste 0 979.5 -1.9 53
2020-03-08 13:00:00 14.1 13 Oeste 33 Sudoeste 0 980.7 -1.3 62
2020-03-08 12:00:00 12.7 17 Oeste 30 Oeste 0 981.4 -0.3 66
2020-03-08 11:00:00 10.3 7 Oeste 17 Oeste 0 981.4 -0.1 74
2020-03-08 10:00:00 6 0 Calma 5 Nordeste 0 982 0.8 93
2020-03-08 09:00:00 2.6 0 Calma 5 Norte 0 981.7 0.7 100
2020-03-08 08:00:00 0.4 0 Calma 5 Norte 0 981.5 0.6 100
2020-03-08 07:00:00 -0.1 0 Calma -- -- 0 981.2 -0.2 100
2020-03-08 06:00:00 0 0 Calma 5 Noroeste 0 981 -0.9 100
2020-03-08 05:00:00 0.4 0 Calma 8 Oeste 0 980.9 -1 99
2020-03-08 04:00:00 1.8 5 Sudoeste 8 Sudoeste 0 981.4 -1.2 100
2020-03-08 03:00:00 2.3 0 Calma 8 Oeste 0 981.9 -1.2 98
2020-03-08 02:00:00 2.8 5 Oeste 8 Oeste 0 981.9 -1.6 100
2020-03-08 01:00:00 2.6 0 Calma -- -- 0 982.6 -0.9 98
2020-03-08 00:00:00 4.3 4 Oeste 8 Oeste 0 983.1 -0.3 96
2020-03-07 23:00:00 4.9 7 Oeste 9 Oeste 0 983.5 -0.2 96
2020-03-07 22:00:00 5.2 0 Calma 8 Norte 0 983.5 0 92
2020-03-07 21:00:00 6.7 0 Calma 4 Oeste 0 983.4 0.3 89
2020-03-07 20:00:00 9 0 Calma 9 Sur 0 983.7 0.6 79
2020-03-07 19:00:00 11.3 0 Calma 13 Sudoeste 0 983.5 0.4 68
2020-03-07 18:00:00 11.4 7 Oeste 22 Oeste 0 983.1 0.3 68
2020-03-07 17:00:00 11.4 11 Oeste 32 Noroeste 0 983.1 0.1 70
2020-03-07 16:00:00 12 12 Noroeste 26 Oeste 0 983.1 -0.4 69
2020-03-07 15:00:00 12.1 12 Oeste 30 Oeste 0 982.8 -0.7 69
2020-03-07 14:00:00 13.1 14 Noroeste 28 Oeste 0 983 -0.3 63
2020-03-07 13:00:00 11.3 14 Oeste 37 Oeste 0 983.5 0.6 73
2020-03-07 12:00:00 10.6 21 Oeste 35 Oeste 0 983.5 1.1 81
2020-03-07 11:00:00 9.6 17 Oeste 35 Oeste 0 983.3 1.8 83
2020-03-07 10:00:00 8.4 12 Oeste 24 Oeste 0 982.9 1.8 87
2020-03-07 09:00:00 7.5 15 Oeste 30 Oeste 0 982.4 1.7 90
2020-03-07 08:00:00 7.9 19 Oeste 32 Oeste 0.1 981.5 1 83
2020-03-07 07:00:00 7.2 14 Oeste 30 Oeste 0.2 981.1 0.3 87
2020-03-07 06:00:00 6.7 17 Oeste 30 Oeste 0.1 980.7 -0.5 87
2020-03-07 05:00:00 6.1 18 Oeste 30 Oeste 0 980.5 -0.7 87
2020-03-07 04:00:00 6.9 18 Oeste 28 Oeste 0 980.8 -0.8 74
2020-03-07 03:00:00 6.8 15 Oeste 32 Oeste 0.1 981.2 0.2 74
2020-03-07 02:00:00 6 17 Oeste -- -- -- 981.2 0.2 86
2020-03-07 01:00:00 5.8 12 Oeste 24 Oeste 0.7 981.6 1.1 87
2020-03-07 00:00:00 5.3 14 Oeste 26 Oeste 0.8 981 0.8 90
2020-03-06 23:00:00 5.3 22 Oeste 42 Oeste 0.1 981 2.3 88
2020-03-06 22:00:00 5.8 20 Oeste 33 Oeste 0 980.5 2.5 81
2020-03-06 21:00:00 5.4 22 Oeste 35 Oeste 0.2 980.2 3.3 85
2020-03-06 20:00:00 5.6 20 Oeste 42 Oeste 0.8 978.7 2.5 81
2020-03-06 19:00:00 6 15 Oeste 52 Oeste 0.6 978 3.2 83
2020-03-06 18:00:00 7.4 27 Oeste 50 Noroeste 0 976.9 1.9 65
2020-03-06 17:00:00 6.9 23 Oeste 50 Oeste 0.2 976.2 0.7 77
2020-03-06 16:00:00 7.8 24 Oeste 48 Oeste 0.3 974.8 -0.2 71
2020-03-06 15:00:00 7.7 23 Oeste 52 Oeste 0.3 975 0.8 68
2020-03-06 14:00:00 7.5 31 Oeste 54 Oeste 0.1 975.5 2.2 70
2020-03-06 13:00:00 6.9 19 Oeste 54 Sudoeste 0 975 2.4 77
2020-03-06 12:00:00 8 29 Oeste 55 Oeste 0 974.2 3.5 65
2020-03-06 11:00:00 7 24 Oeste 48 Oeste 0.1 973.3 3.3 75
2020-03-06 10:00:00 6.7 26 Oeste 48 Noroeste 0 972.6 3.3 74
2020-03-06 09:00:00 6.6 21 Oeste 39 Oeste 0 970.7 2.1 75
2020-03-06 08:00:00 5.7 22 Oeste 45 Oeste 0.9 970 1.6 87
2020-03-06 07:00:00 6.5 30 Oeste 42 Sudoeste 0.7 969.3 0.7 79
2020-03-06 06:00:00 8 17 Oeste 30 Noroeste 0 968.6 -0.5 74
2020-03-06 05:00:00 8 15 Oeste 24 Oeste 0 968.4 -1.1 70
2020-03-06 04:00:00 7.1 13 Oeste 24 Oeste 0 968.6 -1.5 75
2020-03-06 03:00:00 5.4 8 Oeste 15 Noroeste 0 969.1 -1.9 84
2020-03-06 02:00:00 5.7 9 Sudoeste -- -- -- 969.5 -1.8 81
2020-03-06 01:00:00 7.2 3 Oeste 13 Noroeste 0 970.1 -1.1 74
2020-03-06 00:00:00 6.8 8 Oeste 18 Oeste 0 971 -0.1 77
2020-03-05 23:00:00 7.9 13 Oeste 21 Oeste 0 971.3 0.6 70
2020-03-05 22:00:00 8.3 14 Oeste 22 Sudoeste 0 971.2 1.8 68
2020-03-05 21:00:00 8.6 8 Sudoeste 17 Noroeste 0 971.1 2.9 66
2020-03-05 20:00:00 9.6 8 Oeste 37 Oeste 0 970.7 3.4 62
2020-03-05 19:00:00 10.8 17 Oeste 42 Noroeste 0 969.4 3.4 60
2020-03-05 18:00:00 12.7 19 Oeste 37 Oeste 0 968.2 2.7 57
2020-03-05 17:00:00 13.1 19 Noroeste 41 Noroeste 0 967.3 3.3 59
2020-03-05 16:00:00 15.2 22 Oeste 50 Oeste 0 966 1.7 54
2020-03-05 15:00:00 12.3 22 Oeste 58 Oeste 0.1 965.5 1.3 70
2020-03-05 14:00:00 16.5 30 Oeste 72 Oeste 0 964 0.4 40
2020-03-05 13:00:00 16 39 Oeste 71 Oeste 0 964.3 0.8 44
2020-03-05 12:00:00 12.7 24 Oeste 52 Oeste 1.8 964.2 -0.2 66
2020-03-05 11:00:00 12.1 0 Calma 8 Noroeste 0 963.6 -1 86
2020-03-05 10:00:00 11.1 5 Este 9 Nordeste 0 963.5 -1.9 89
2020-03-05 09:00:00 10.3 0 Calma 8 Este 0 964.4 -1.6 91
2020-03-05 08:00:00 9.9 2 Norte 11 Nordeste 0 964.6 -1.9 92
2020-03-05 07:00:00 11.2 3 Nordeste 18 Sur 0 965.4 -1.8 84
2020-03-05 06:00:00 10 5 Sur 9 Sudoeste 0 966 -3.3 87
2020-03-05 05:00:00 9.5 3 Norte 13 Este 0 966.5 -3.4 90
2020-03-05 04:00:00 8.7 0 Calma -- -- 0 967.2 -3.6 91
2020-03-05 03:00:00 9.6 0 Calma 5 Este 0 969.3 -2.2 89
2020-03-05 02:00:00 9.6 5 Este -- -- -- 969.9 -2.6 84
2020-03-05 01:00:00 11.4 0 Calma 9 Sudeste 0 970.8 -2.1 78
2020-03-05 00:00:00 12.6 0 Calma 9 Sudoeste 0 971.5 -1.5 75
2020-03-04 23:00:00 12.9 3 Oeste 11 Sudoeste 0 972.5 -0.6 74
2020-03-04 22:00:00 12.9 4 Sudoeste 9 Sudoeste 0 972.9 -0.1 70
2020-03-04 21:00:00 14.2 4 Oeste 9 Oeste 0 973 0.5 66
2020-03-04 20:00:00 16.8 5 Oeste 17 Oeste 0 973.1 0.5 56
2020-03-04 19:00:00 17.5 13 Oeste 24 Oeste 0 973 0 53
2020-03-04 18:00:00 18.7 14 Oeste 37 Oeste 0 972.5 -0.9 49
2020-03-04 17:00:00 20 19 Oeste 35 Oeste 0 972.6 -1.6 47
2020-03-04 16:00:00 19.6 17 Oeste 39 Oeste 0 973 -2.2 46
2020-03-04 15:00:00 19.1 17 Oeste 37 Oeste 0 973.4 -1.9 50
2020-03-04 14:00:00 18.6 22 Oeste 39 Oeste 0 974.2 -1.1 53
2020-03-04 13:00:00 18.2 20 Oeste 42 Oeste 0 975.2 0 56
2020-03-04 12:00:00 17.2 27 Oeste 46 Oeste 0 975.3 0.1 61
2020-03-04 11:00:00 16.3 22 Oeste 37 Oeste 0 975.3 0.3 69
2020-03-04 10:00:00 11.1 4 Sudeste 11 Este 0 975.2 0.6 93
2020-03-04 09:00:00 9.2 2 Este 13 Sudeste 0 975.2 0.6 97
2020-03-04 08:00:00 8.3 5 Este 9 Este 0 975 0.5 97
2020-03-04 07:00:00 8.1 5 Este 9 Nordeste 0.2 974.6 0.3 98
2020-03-04 06:00:00 8.2 8 Este 11 Nordeste 0.4 974.6 -0.2 96
2020-03-04 05:00:00 8.4 6 Nordeste 13 Nordeste 0.2 974.5 -0.4 94
2020-03-04 04:00:00 8.8 5 Norte 11 Nordeste 0 974.3 -0.6 88
2020-03-04 03:00:00 8.9 0 Calma 5 Sur 0 974.8 -0.5 86
2020-03-04 02:00:00 8.8 5 Este -- -- -- 974.9 -0.5 86
2020-03-04 01:00:00 9.9 9 Oeste 15 Oeste 0 974.9 0.5 80
2020-03-04 00:00:00 9.9 7 Sudoeste 11 Sudoeste 0 975.3 1.5 79
2020-03-03 23:00:00 10.6 8 Sudoeste 11 Sudoeste 0 975.4 2.6 74
2020-03-03 22:00:00 11.8 7 Oeste 18 Oeste 0 974.4 3 68
2020-03-03 21:00:00 13 13 Oeste 28 Sudoeste 0 973.8 4.2 61
2020-03-03 20:00:00 12.9 15 Sudoeste 30 Noroeste 0 972.8 5.3 62
2020-03-03 19:00:00 13.8 15 Oeste 33 Oeste 0 971.4 5.4 59
2020-03-03 18:00:00 15.4 21 Oeste 52 Noroeste 0 969.6 5.1 54
2020-03-03 17:00:00 17 23 Noroeste 71 Noroeste 0 967.5 3.1 47
2020-03-03 16:00:00 20 32 Oeste 59 Noroeste 0 966 1.1 34
2020-03-03 15:00:00 18.9 28 Oeste 65 Oeste 0 964.5 -1.5 51
2020-03-03 14:00:00 17.4 32 Oeste 68 Oeste 0 964.4 -3.5 57
2020-03-03 13:00:00 14.2 26 Oeste 50 Oeste 0 964.9 -3.1 70
2020-03-03 12:00:00 9.1 11 Este 22 Este 0 966 -2.2 86
2020-03-03 11:00:00 5.6 11 Este 17 Nordeste 0.1 967.9 -1.6 94
2020-03-03 10:00:00 4.7 7 Este 17 Este 0.5 968 -2.6 96
2020-03-03 09:00:00 4.4 13 Este 18 Este 0.5 968.2 -3 96
2020-03-03 08:00:00 5.3 10 Este 13 Este 1.8 969.5 -1.7 93
2020-03-03 07:00:00 5.9 0 Calma 11 Oeste 0.9 970.6 -0.9 86
2020-03-03 06:00:00 6.7 7 Oeste 15 Sudoeste 0 971.2 -0.9 76
2020-03-03 05:00:00 6.6 12 Oeste 18 Sudoeste 0 971.2 -1.7 71
2020-03-03 04:00:00 5.6 9 Sudoeste 21 Sudoeste 0 971.5 -1.6 73
2020-03-03 03:00:00 5.7 12 Sudoeste 18 Sudoeste 0 972.1 -1 72
2020-03-03 02:00:00 5.4 8 Oeste 13 Oeste 0 972.9 -0.2 71
2020-03-03 01:00:00 4.9 9 Oeste 13 Sudoeste 0 973.1 0.6 69
2020-03-03 00:00:00 4.4 5 Oeste 13 Oeste 0 973.1 1.4 71
2020-03-02 23:00:00 5.7 6 Oeste 22 Oeste 0 973.1 1.9 66
2020-03-02 22:00:00 6.9 9 Oeste 28 Sudoeste 0 972.5 2.5 59
2020-03-02 21:00:00 7.7 17 Oeste 32 Oeste 0 971.7 3.3 50
2020-03-02 20:00:00 8.1 21 Oeste 41 Oeste 0 971.2 4 54
2020-03-02 19:00:00 8.3 23 Oeste 45 Oeste 0 970 4.4 54
2020-03-02 18:00:00 8.9 21 Oeste 46 Oeste 0 968.4 4.1 51
2020-03-02 17:00:00 10.6 24 Oeste 55 Oeste 0 967.2 3.1 45
2020-03-02 16:00:00 11.4 27 Oeste 52 Oeste 0 965.6 2.1 40
2020-03-02 15:00:00 11.9 25 Oeste 55 Oeste 0 964.3 1.4 44
2020-03-02 14:00:00 11.3 27 Noroeste 50 Noroeste 0 964.1 2.1 49
2020-03-02 13:00:00 11.3 24 Oeste 42 Oeste 0 963.5 2.4 51
2020-03-02 12:00:00 10 27 Oeste 39 Oeste 0 962.9 3.5 57
2020-03-02 11:00:00 9.8 18 Oeste 39 Oeste 0 962 5.1 60
2020-03-02 10:00:00 9.3 23 Oeste 41 Oeste 0 961.1 6.5 65
2020-03-02 09:00:00 9.2 23 Oeste 46 Oeste 0 959.4 5.4 67
2020-03-02 08:00:00 9.9 23 Oeste 54 Oeste 0 956.9 8.2 67
2020-03-02 07:00:00 8.9 12 Oeste 33 Oeste 0 954.6 4.3 83
2020-03-02 06:00:00 8 24 Oeste 67 Oeste 3.7 954 1.9 88
2020-03-02 05:00:00 9.3 0 Calma 15 Sudeste 0 948.7 -5.5 93
2020-03-02 04:00:00 9.5 8 Este 11 Este 0 950.3 -6.2 91
2020-03-02 03:00:00 9.3 3 Este 13 Nordeste 0.1 952.1 -6.8 93
2020-03-02 02:00:00 9.3 9 Nordeste -- -- -- 954.2 -6.4 93
2020-03-02 01:00:00 10.2 8 Este 15 Este 0.8 956.5 -5.1 86
2020-03-02 00:00:00 12 0 Calma 11 Oeste 0.1 958.9 -3.6 69
2020-03-01 23:00:00 13.4 5 Oeste 21 Oeste 0 960.6 -2 55
2020-03-01 22:00:00 14.6 14 Oeste 22 Oeste 0 961.6 -1.2 43
2020-03-01 21:00:00 12.1 0 Calma 8 Este 0 962.5 -0.8 65
2020-03-01 20:00:00 13.2 3 Sudeste 5 Sudeste 0 962.6 -0.7 55
2020-03-01 19:00:00 16.2 3 Sudoeste 17 Oeste 0 962.8 -0.7 41
2020-03-01 18:00:00 16.8 9 Oeste 24 Sudoeste 0 963.3 -1 40
2020-03-01 17:00:00 18.1 17 Sudoeste 39 Oeste 0 963.3 -2.2 32
2020-03-01 16:00:00 18.6 19 Oeste 42 Oeste 0 963.5 -2.6 27
2020-03-01 15:00:00 19.2 21 Oeste 42 Oeste 0 964.3 -2.1 28
2020-03-01 14:00:00 17.9 30 Oeste 54 Oeste 0 965.5 -1 34
2020-03-01 13:00:00 16.6 19 Oeste 50 Oeste 0 966.1 -0.6 42
2020-03-01 12:00:00 16.5 26 Oeste 58 Sudoeste 0 966.4 -0.1 38
2020-03-01 11:00:00 14 7 Sur 26 Este 0 966.5 0.5 52
2020-03-01 10:00:00 10.4 10 Este 15 Sudeste 0 966.7 0.4 71
2020-03-01 09:00:00 8.7 8 Nordeste 11 Norte 0 966.5 -0.1 80
2020-03-01 08:00:00 8.6 2 Sudoeste 11 Oeste 0 966 -0.5 72
2020-03-01 07:00:00 9.9 5 Oeste 33 Oeste 0 966.3 -0.3 66
2020-03-01 06:00:00 11.1 19 Oeste 32 Oeste 0 966.6 -0.9 61
2020-03-01 05:00:00 11.3 8 Oeste 17 Noroeste 0 966.5 -1.3 61
2020-03-01 04:00:00 12 10 Oeste 22 Oeste 0 966.6 -1.4 56
2020-03-01 03:00:00 11.4 11 Oeste 17 Oeste 0 967.5 -0.9 59
2020-03-01 02:00:00 11.4 6 Noroeste 18 Oeste 0 967.8 -0.8 56
2020-03-01 01:00:00 12 4 Sudoeste 22 Oeste 0 968 -0.3 52
2020-03-01 00:00:00 12.5 10 Oeste 28 Oeste 0 968.4 0.6 50
2020-02-29 23:00:00 13.1 13 Oeste 39 Oeste 0 968.6 1.1 44
2020-02-29 22:00:00 13.3 13 Oeste 26 Oeste 0 968.3 1.8 45
2020-02-29 21:00:00 13.4 16 Oeste 33 Oeste 0 967.8 2.3 45
2020-02-29 20:00:00 14 18 Oeste 37 Noroeste 0 967.5 2.5 45
2020-02-29 19:00:00 14.7 17 Oeste 41 Sudoeste 0 966.5 1.8 44
2020-02-29 18:00:00 15.8 26 Oeste 48 Oeste 0 965.5 0.6 43
2020-02-29 17:00:00 16.1 7 Nordeste 22 Sudeste 0 965 -0.3 60
2020-02-29 16:00:00 16.4 8 Sur 13 Sur 0 964.7 -1.3 60
2020-02-29 15:00:00 16.5 4 Nordeste 17 Este 0 964.9 -1.6 54
2020-02-29 14:00:00 16.1 12 Este 17 Este 0 965.3 -1.4 55
2020-02-29 13:00:00 14.7 12 Este 17 Este 0 966 -0.3 61
2020-02-29 12:00:00 12.7 10 Nordeste 18 Este 0 966.5 0.3 70
2020-02-29 11:00:00 10.6 12 Este 18 Este 0 966.7 0.7 79
2020-02-29 10:00:00 9.5 9 Este 17 Este 0 966.3 0.2 84
2020-02-29 09:00:00 8.1 10 Sudeste 17 Sudeste 0 966.2 -0.9 90
2020-02-29 08:00:00 6.8 0 Calma 8 Oeste 0 966 -0.8 96
2020-02-29 07:00:00 5.7 7 Nordeste 21 Nordeste 0 966.1 -1.1 92
2020-02-29 06:00:00 6.5 6 Nordeste 18 Norte 0 967.1 -1 93
2020-02-29 05:00:00 6.7 3 Este 11 Oeste 0 966.8 -2.1 93
2020-02-29 04:00:00 5.8 2 Este 9 Norte 0 967.2 -2.7 90
2020-02-29 03:00:00 5.3 4 Este 9 Este 0 968.1 -2.4 85
2020-02-29 02:00:00 7 2 Sudeste 8 Oeste 0 968.9 -2.2 79
2020-02-29 01:00:00 7.2 0 Calma 8 Oeste 0 969.9 -1.6 82
2020-02-29 00:00:00 7.4 3 Este 5 Sudeste 0 970.5 -1.5 83